Terminal Aerodrome Forecast
Issued by NWS

Home | Current Version | Previous Version | Text Only | Print | Product List | Glossary Off
Versions: 1 2 3 4 5 6 7 8 9 10 11 12 13 14 15

000
FTUS42 KMHX 240531
TAFOAJ
TAF
KOAJ 240531Z 2406/2506 21006KT P6SM SCT010
     FM241500 21007KT P6SM BKN025
     FM241800 21008G17KT P6SM VCTS SCT025CB BKN100
     FM250000 21005KT P6SM VCSH BKN250
      AMD LTD TO CLD VIS AND WIND=

USA.gov is the U.S. government's official web portal to all federal, state and local government web resources and services.